sensor_id;sensor_type;location;lat;lon;timestamp;P1;durP1;ratioP1;P2;durP2;ratioP2
76689;SDS011;70102;44.506;0.220;2023-08-06T00:05:30;16.13;;;2.67;;
76689;SDS011;70102;44.506;0.220;2023-08-06T00:11:02;20.10;;;2.50;;
76689;SDS011;70102;44.506;0.220;2023-08-06T00:16:35;16.60;;;3.37;;
76689;SDS011;70102;44.506;0.220;2023-08-06T00:22:07;13.80;;;2.00;;
76689;SDS011;70102;44.506;0.220;2023-08-06T00:27:40;15.40;;;2.50;;
76689;SDS011;70102;44.506;0.220;2023-08-06T00:33:13;13.97;;;1.80;;
76689;SDS011;70102;44.506;0.220;2023-08-06T00:38:45;9.53;;;1.93;;
76689;SDS011;70102;44.506;0.220;2023-08-06T00:44:19;13.43;;;2.13;;
76689;SDS011;70102;44.506;0.220;2023-08-06T00:49:52;16.63;;;3.07;;
76689;SDS011;70102;44.506;0.220;2023-08-06T00:55:25;12.80;;;2.77;;
76689;SDS011;70102;44.506;0.220;2023-08-06T01:00:59;21.37;;;3.07;;
76689;SDS011;70102;44.506;0.220;2023-08-06T01:06:35;19.57;;;2.40;;
76689;SDS011;70102;44.506;0.220;2023-08-06T01:12:06;13.10;;;1.97;;
76689;SDS011;70102;44.506;0.220;2023-08-06T01:17:37;12.73;;;2.07;;
76689;SDS011;70102;44.506;0.220;2023-08-06T01:23:10;9.90;;;1.50;;
76689;SDS011;70102;44.506;0.220;2023-08-06T01:28:47;15.33;;;2.00;;
76689;SDS011;70102;44.506;0.220;2023-08-06T01:34:17;20.87;;;1.90;;
76689;SDS011;70102;44.506;0.220;2023-08-06T01:39:50;14.87;;;2.80;;
76689;SDS011;70102;44.506;0.220;2023-08-06T01:45:23;18.00;;;2.10;;
76689;SDS011;70102;44.506;0.220;2023-08-06T01:50:55;13.23;;;3.27;;
76689;SDS011;70102;44.506;0.220;2023-08-06T01:56:28;11.10;;;2.40;;
76689;SDS011;70102;44.506;0.220;2023-08-06T02:02:02;11.67;;;2.40;;
76689;SDS011;70102;44.506;0.220;2023-08-06T02:07:34;21.33;;;3.03;;
76689;SDS011;70102;44.506;0.220;2023-08-06T02:13:07;10.00;;;2.70;;
76689;SDS011;70102;44.506;0.220;2023-08-06T02:18:39;17.40;;;2.07;;
76689;SDS011;70102;44.506;0.220;2023-08-06T02:24:12;17.77;;;2.47;;
76689;SDS011;70102;44.506;0.220;2023-08-06T02:29:44;13.57;;;2.73;;
76689;SDS011;70102;44.506;0.220;2023-08-06T02:35:18;11.87;;;2.27;;
76689;SDS011;70102;44.506;0.220;2023-08-06T02:40:51;19.93;;;4.93;;
76689;SDS011;70102;44.506;0.220;2023-08-06T02:51:55;9.60;;;1.80;;
76689;SDS011;70102;44.506;0.220;2023-08-06T02:57:27;18.63;;;2.10;;
76689;SDS011;70102;44.506;0.220;2023-08-06T03:02:59;10.00;;;1.70;;
76689;SDS011;70102;44.506;0.220;2023-08-06T03:08:31;12.27;;;1.80;;
76689;SDS011;70102;44.506;0.220;2023-08-06T03:14:04;6.27;;;1.50;;
76689;SDS011;70102;44.506;0.220;2023-08-06T03:19:37;13.47;;;1.87;;
76689;SDS011;70102;44.506;0.220;2023-08-06T03:25:10;16.87;;;2.37;;
76689;SDS011;70102;44.506;0.220;2023-08-06T03:30:42;13.27;;;2.30;;
76689;SDS011;70102;44.506;0.220;2023-08-06T03:36:15;13.80;;;2.07;;
76689;SDS011;70102;44.506;0.220;2023-08-06T03:41:48;15.43;;;2.00;;
76689;SDS011;70102;44.506;0.220;2023-08-06T03:47:20;8.97;;;1.73;;
76689;SDS011;70102;44.506;0.220;2023-08-06T03:52:54;8.00;;;1.93;;
76689;SDS011;70102;44.506;0.220;2023-08-06T03:58:26;9.97;;;1.97;;
76689;SDS011;70102;44.506;0.220;2023-08-06T04:03:59;27.50;;;2.10;;
76689;SDS011;70102;44.506;0.220;2023-08-06T04:09:31;13.83;;;2.70;;
76689;SDS011;70102;44.506;0.220;2023-08-06T04:15:04;12.73;;;2.33;;
76689;SDS011;70102;44.506;0.220;2023-08-06T04:20:42;14.43;;;2.47;;
76689;SDS011;70102;44.506;0.220;2023-08-06T04:26:11;9.23;;;1.33;;
76689;SDS011;70102;44.506;0.220;2023-08-06T04:31:43;21.20;;;3.07;;
76689;SDS011;70102;44.506;0.220;2023-08-06T04:37:15;16.20;;;2.47;;
76689;SDS011;70102;44.506;0.220;2023-08-06T04:42:47;15.40;;;1.70;;
76689;SDS011;70102;44.506;0.220;2023-08-06T04:48:21;16.27;;;2.10;;
76689;SDS011;70102;44.506;0.220;2023-08-06T04:53:53;15.60;;;2.60;;
76689;SDS011;70102;44.506;0.220;2023-08-06T04:59:26;11.43;;;4.00;;
76689;SDS011;70102;44.506;0.220;2023-08-06T05:04:58;14.97;;;2.00;;
76689;SDS011;70102;44.506;0.220;2023-08-06T05:10:30;14.93;;;2.03;;
76689;SDS011;70102;44.506;0.220;2023-08-06T05:16:04;15.67;;;1.93;;
76689;SDS011;70102;44.506;0.220;2023-08-06T05:21:36;16.90;;;2.37;;
76689;SDS011;70102;44.506;0.220;2023-08-06T05:27:08;12.23;;;2.57;;
76689;SDS011;70102;44.506;0.220;2023-08-06T05:32:41;20.53;;;2.87;;
76689;SDS011;70102;44.506;0.220;2023-08-06T05:38:14;20.10;;;2.03;;
76689;SDS011;70102;44.506;0.220;2023-08-06T05:43:47;10.13;;;2.57;;
76689;SDS011;70102;44.506;0.220;2023-08-06T05:49:19;7.13;;;1.70;;
76689;SDS011;70102;44.506;0.220;2023-08-06T05:54:52;12.30;;;1.57;;
76689;SDS011;70102;44.506;0.220;2023-08-06T06:00:26;8.63;;;2.27;;
76689;SDS011;70102;44.506;0.220;2023-08-06T06:05:58;13.63;;;1.77;;
76689;SDS011;70102;44.506;0.220;2023-08-06T06:11:32;12.23;;;2.40;;
76689;SDS011;70102;44.506;0.220;2023-08-06T06:17:05;14.97;;;1.97;;
76689;SDS011;70102;44.506;0.220;2023-08-06T06:22:38;11.33;;;3.00;;
76689;SDS011;70102;44.506;0.220;2023-08-06T06:28:11;13.80;;;1.70;;
76689;SDS011;70102;44.506;0.220;2023-08-06T06:33:44;14.13;;;2.80;;
76689;SDS011;70102;44.506;0.220;2023-08-06T06:39:17;14.63;;;2.70;;
76689;SDS011;70102;44.506;0.220;2023-08-06T06:44:48;13.13;;;2.57;;
76689;SDS011;70102;44.506;0.220;2023-08-06T06:50:21;17.13;;;2.83;;
76689;SDS011;70102;44.506;0.220;2023-08-06T06:55:55;12.40;;;1.70;;
76689;SDS011;70102;44.506;0.220;2023-08-06T07:01:28;11.70;;;1.57;;
76689;SDS011;70102;44.506;0.220;2023-08-06T07:07:01;18.80;;;2.23;;
76689;SDS011;70102;44.506;0.220;2023-08-06T07:12:34;14.40;;;1.70;;
76689;SDS011;70102;44.506;0.220;2023-08-06T07:18:08;16.53;;;2.20;;
76689;SDS011;70102;44.506;0.220;2023-08-06T07:23:40;6.73;;;1.70;;
76689;SDS011;70102;44.506;0.220;2023-08-06T07:29:13;11.87;;;2.73;;
76689;SDS011;70102;44.506;0.220;2023-08-06T07:34:46;5.03;;;1.17;;
76689;SDS011;70102;44.506;0.220;2023-08-06T07:40:19;7.37;;;1.27;;
76689;SDS011;70102;44.506;0.220;2023-08-06T07:45:51;5.10;;;1.43;;
76689;SDS011;70102;44.506;0.220;2023-08-06T07:51:23;7.43;;;1.43;;
76689;SDS011;70102;44.506;0.220;2023-08-06T07:56:56;5.67;;;1.10;;
76689;SDS011;70102;44.506;0.220;2023-08-06T08:02:30;6.67;;;2.20;;
76689;SDS011;70102;44.506;0.220;2023-08-06T08:08:02;6.97;;;1.23;;
76689;SDS011;70102;44.506;0.220;2023-08-06T08:13:34;12.73;;;2.60;;
76689;SDS011;70102;44.506;0.220;2023-08-06T08:19:07;12.20;;;1.87;;
76689;SDS011;70102;44.506;0.220;2023-08-06T08:24:41;6.90;;;1.30;;
76689;SDS011;70102;44.506;0.220;2023-08-06T08:30:13;6.17;;;1.20;;
76689;SDS011;70102;44.506;0.220;2023-08-06T08:35:46;6.83;;;1.30;;
76689;SDS011;70102;44.506;0.220;2023-08-06T08:41:18;7.27;;;1.30;;
76689;SDS011;70102;44.506;0.220;2023-08-06T08:46:51;7.40;;;1.30;;
76689;SDS011;70102;44.506;0.220;2023-08-06T08:52:24;11.00;;;2.03;;
76689;SDS011;70102;44.506;0.220;2023-08-06T08:57:57;4.17;;;1.63;;
76689;SDS011;70102;44.506;0.220;2023-08-06T09:03:29;5.83;;;1.37;;
76689;SDS011;70102;44.506;0.220;2023-08-06T09:09:05;5.13;;;1.90;;
76689;SDS011;70102;44.506;0.220;2023-08-06T09:14:36;10.43;;;1.90;;
76689;SDS011;70102;44.506;0.220;2023-08-06T09:20:10;7.40;;;1.40;;
76689;SDS011;70102;44.506;0.220;2023-08-06T09:25:41;2.70;;;1.33;;
76689;SDS011;70102;44.506;0.220;2023-08-06T09:31:15;4.63;;;1.00;;
76689;SDS011;70102;44.506;0.220;2023-08-06T09:36:50;4.23;;;1.30;;
76689;SDS011;70102;44.506;0.220;2023-08-06T09:42:22;4.00;;;1.10;;
76689;SDS011;70102;44.506;0.220;2023-08-06T09:53:28;7.03;;;1.10;;
76689;SDS011;70102;44.506;0.220;2023-08-06T09:59:00;3.93;;;1.30;;
76689;SDS011;70102;44.506;0.220;2023-08-06T10:04:33;6.27;;;1.27;;
76689;SDS011;70102;44.506;0.220;2023-08-06T10:10:06;7.97;;;1.20;;
76689;SDS011;70102;44.506;0.220;2023-08-06T10:15:38;4.03;;;1.53;;
76689;SDS011;70102;44.506;0.220;2023-08-06T10:21:12;2.87;;;0.90;;
76689;SDS011;70102;44.506;0.220;2023-08-06T10:26:45;4.33;;;1.13;;
76689;SDS011;70102;44.506;0.220;2023-08-06T10:32:19;6.10;;;1.33;;
76689;SDS011;70102;44.506;0.220;2023-08-06T10:37:52;3.00;;;1.23;;
76689;SDS011;70102;44.506;0.220;2023-08-06T10:43:25;7.10;;;1.40;;
76689;SDS011;70102;44.506;0.220;2023-08-06T10:48:57;4.30;;;0.70;;
76689;SDS011;70102;44.506;0.220;2023-08-06T10:54:29;5.83;;;1.23;;
76689;SDS011;70102;44.506;0.220;2023-08-06T11:00:04;4.47;;;1.00;;
76689;SDS011;70102;44.506;0.220;2023-08-06T11:05:37;3.40;;;0.60;;
76689;SDS011;70102;44.506;0.220;2023-08-06T11:11:10;2.73;;;1.00;;
76689;SDS011;70102;44.506;0.220;2023-08-06T11:16:43;2.60;;;0.87;;
76689;SDS011;70102;44.506;0.220;2023-08-06T11:22:16;1.70;;;0.97;;
76689;SDS011;70102;44.506;0.220;2023-08-06T11:27:48;7.43;;;1.00;;
76689;SDS011;70102;44.506;0.220;2023-08-06T11:33:21;3.73;;;1.37;;
76689;SDS011;70102;44.506;0.220;2023-08-06T11:38:53;8.93;;;1.80;;
76689;SDS011;70102;44.506;0.220;2023-08-06T11:44:26;3.67;;;1.10;;
76689;SDS011;70102;44.506;0.220;2023-08-06T11:49:58;6.00;;;1.50;;
76689;SDS011;70102;44.506;0.220;2023-08-06T11:55:30;5.67;;;0.97;;
76689;SDS011;70102;44.506;0.220;2023-08-06T12:01:04;4.77;;;1.63;;
76689;SDS011;70102;44.506;0.220;2023-08-06T12:06:41;4.33;;;0.90;;
76689;SDS011;70102;44.506;0.220;2023-08-06T12:12:10;4.93;;;1.20;;
76689;SDS011;70102;44.506;0.220;2023-08-06T12:17:42;7.27;;;1.10;;
76689;SDS011;70102;44.506;0.220;2023-08-06T12:23:16;3.40;;;0.90;;
76689;SDS011;70102;44.506;0.220;2023-08-06T12:28:48;4.17;;;1.20;;
76689;SDS011;70102;44.506;0.220;2023-08-06T12:34:22;6.67;;;1.57;;
76689;SDS011;70102;44.506;0.220;2023-08-06T12:39:55;5.97;;;0.93;;
76689;SDS011;70102;44.506;0.220;2023-08-06T12:45:26;4.50;;;0.90;;
76689;SDS011;70102;44.506;0.220;2023-08-06T12:50:59;3.23;;;1.10;;
76689;SDS011;70102;44.506;0.220;2023-08-06T12:56:31;2.07;;;0.73;;
76689;SDS011;70102;44.506;0.220;2023-08-06T13:02:04;4.90;;;0.83;;
76689;SDS011;70102;44.506;0.220;2023-08-06T13:07:37;1.93;;;0.90;;
76689;SDS011;70102;44.506;0.220;2023-08-06T13:13:11;1.10;;;0.50;;
76689;SDS011;70102;44.506;0.220;2023-08-06T13:18:43;39.33;;;3.60;;
76689;SDS011;70102;44.506;0.220;2023-08-06T13:24:16;2.83;;;0.80;;
76689;SDS011;70102;44.506;0.220;2023-08-06T13:29:49;3.27;;;0.97;;
76689;SDS011;70102;44.506;0.220;2023-08-06T13:35:23;5.03;;;0.97;;
76689;SDS011;70102;44.506;0.220;2023-08-06T13:40:57;3.73;;;0.90;;
76689;SDS011;70102;44.506;0.220;2023-08-06T13:46:31;2.60;;;0.77;;
76689;SDS011;70102;44.506;0.220;2023-08-06T13:52:04;3.50;;;0.87;;
76689;SDS011;70102;44.506;0.220;2023-08-06T13:57:37;1.83;;;0.73;;
76689;SDS011;70102;44.506;0.220;2023-08-06T14:03:09;4.27;;;0.90;;
76689;SDS011;70102;44.506;0.220;2023-08-06T14:08:42;6.57;;;1.70;;
76689;SDS011;70102;44.506;0.220;2023-08-06T14:14:14;4.43;;;1.07;;
76689;SDS011;70102;44.506;0.220;2023-08-06T14:19:46;4.40;;;1.13;;
76689;SDS011;70102;44.506;0.220;2023-08-06T14:25:18;2.10;;;1.10;;
76689;SDS011;70102;44.506;0.220;2023-08-06T14:30:51;4.17;;;0.77;;
76689;SDS011;70102;44.506;0.220;2023-08-06T14:36:23;5.13;;;0.80;;
76689;SDS011;70102;44.506;0.220;2023-08-06T14:41:56;2.93;;;0.90;;
76689;SDS011;70102;44.506;0.220;2023-08-06T14:47:29;4.13;;;1.10;;
76689;SDS011;70102;44.506;0.220;2023-08-06T14:53:02;4.20;;;0.90;;
76689;SDS011;70102;44.506;0.220;2023-08-06T14:58:33;6.33;;;1.00;;
76689;SDS011;70102;44.506;0.220;2023-08-06T15:04:07;1.33;;;0.70;;
76689;SDS011;70102;44.506;0.220;2023-08-06T15:09:40;3.90;;;1.10;;
76689;SDS011;70102;44.506;0.220;2023-08-06T15:15:12;3.10;;;1.00;;
76689;SDS011;70102;44.506;0.220;2023-08-06T15:20:46;1.80;;;0.83;;
76689;SDS011;70102;44.506;0.220;2023-08-06T15:26:20;5.07;;;1.03;;
76689;SDS011;70102;44.506;0.220;2023-08-06T15:31:53;2.30;;;0.80;;
76689;SDS011;70102;44.506;0.220;2023-08-06T15:37:25;2.77;;;0.83;;
76689;SDS011;70102;44.506;0.220;2023-08-06T15:42:57;2.73;;;1.00;;
76689;SDS011;70102;44.506;0.220;2023-08-06T15:48:30;4.37;;;1.20;;
76689;SDS011;70102;44.506;0.220;2023-08-06T15:54:02;3.50;;;1.03;;
76689;SDS011;70102;44.506;0.220;2023-08-06T15:59:35;5.53;;;1.83;;
76689;SDS011;70102;44.506;0.220;2023-08-06T16:05:08;13.20;;;1.60;;
76689;SDS011;70102;44.506;0.220;2023-08-06T16:10:41;4.13;;;1.50;;
76689;SDS011;70102;44.506;0.220;2023-08-06T16:16:13;3.33;;;1.00;;
76689;SDS011;70102;44.506;0.220;2023-08-06T16:21:46;1.87;;;0.80;;
76689;SDS011;70102;44.506;0.220;2023-08-06T16:27:18;5.63;;;0.97;;
76689;SDS011;70102;44.506;0.220;2023-08-06T16:32:52;3.30;;;0.90;;
76689;SDS011;70102;44.506;0.220;2023-08-06T16:38:24;4.47;;;0.80;;
76689;SDS011;70102;44.506;0.220;2023-08-06T16:43:57;4.77;;;0.77;;
76689;SDS011;70102;44.506;0.220;2023-08-06T16:49:29;7.57;;;0.87;;
76689;SDS011;70102;44.506;0.220;2023-08-06T16:55:02;4.30;;;0.90;;
76689;SDS011;70102;44.506;0.220;2023-08-06T17:00:36;3.13;;;1.00;;
76689;SDS011;70102;44.506;0.220;2023-08-06T17:06:08;4.43;;;1.17;;
76689;SDS011;70102;44.506;0.220;2023-08-06T17:11:40;5.40;;;1.10;;
76689;SDS011;70102;44.506;0.220;2023-08-06T17:17:13;3.60;;;1.00;;
76689;SDS011;70102;44.506;0.220;2023-08-06T17:22:45;4.90;;;1.70;;
76689;SDS011;70102;44.506;0.220;2023-08-06T17:28:18;0.83;;;0.60;;
76689;SDS011;70102;44.506;0.220;2023-08-06T17:33:51;3.93;;;0.83;;
76689;SDS011;70102;44.506;0.220;2023-08-06T17:39:24;4.60;;;2.03;;
76689;SDS011;70102;44.506;0.220;2023-08-06T17:44:56;2.97;;;0.80;;
76689;SDS011;70102;44.506;0.220;2023-08-06T17:50:29;1.80;;;0.73;;
76689;SDS011;70102;44.506;0.220;2023-08-06T17:56:03;6.33;;;0.93;;
76689;SDS011;70102;44.506;0.220;2023-08-06T18:01:36;2.70;;;0.80;;
76689;SDS011;70102;44.506;0.220;2023-08-06T18:07:08;3.13;;;0.73;;
76689;SDS011;70102;44.506;0.220;2023-08-06T18:12:41;4.23;;;1.07;;
76689;SDS011;70102;44.506;0.220;2023-08-06T18:18:14;4.07;;;1.00;;
76689;SDS011;70102;44.506;0.220;2023-08-06T18:23:48;8.83;;;2.07;;
76689;SDS011;70102;44.506;0.220;2023-08-06T18:29:20;5.50;;;0.97;;
76689;SDS011;70102;44.506;0.220;2023-08-06T18:34:52;0.80;;;0.60;;
76689;SDS011;70102;44.506;0.220;2023-08-06T18:40:25;1.00;;;0.50;;
76689;SDS011;70102;44.506;0.220;2023-08-06T18:45:57;0.97;;;0.80;;
76689;SDS011;70102;44.506;0.220;2023-08-06T18:51:30;2.50;;;0.70;;
76689;SDS011;70102;44.506;0.220;2023-08-06T18:57:03;1.27;;;0.90;;
76689;SDS011;70102;44.506;0.220;2023-08-06T19:02:35;3.47;;;0.77;;
76689;SDS011;70102;44.506;0.220;2023-08-06T19:08:08;6.10;;;0.80;;
76689;SDS011;70102;44.506;0.220;2023-08-06T19:13:40;2.07;;;1.00;;
76689;SDS011;70102;44.506;0.220;2023-08-06T19:19:12;6.07;;;0.77;;
76689;SDS011;70102;44.506;0.220;2023-08-06T19:24:45;4.87;;;0.87;;
76689;SDS011;70102;44.506;0.220;2023-08-06T19:30:24;5.20;;;0.90;;
76689;SDS011;70102;44.506;0.220;2023-08-06T19:35:52;2.27;;;0.93;;
76689;SDS011;70102;44.506;0.220;2023-08-06T19:41:24;4.77;;;1.03;;
76689;SDS011;70102;44.506;0.220;2023-08-06T19:46:57;2.73;;;0.90;;
76689;SDS011;70102;44.506;0.220;2023-08-06T19:52:30;1.33;;;1.00;;
76689;SDS011;70102;44.506;0.220;2023-08-06T19:58:03;1.77;;;0.60;;
76689;SDS011;70102;44.506;0.220;2023-08-06T20:03:36;3.20;;;0.80;;
76689;SDS011;70102;44.506;0.220;2023-08-06T20:09:09;1.77;;;0.90;;
76689;SDS011;70102;44.506;0.220;2023-08-06T20:14:42;5.23;;;0.80;;
76689;SDS011;70102;44.506;0.220;2023-08-06T20:20:14;2.73;;;0.50;;
76689;SDS011;70102;44.506;0.220;2023-08-06T20:25:47;1.60;;;0.57;;
76689;SDS011;70102;44.506;0.220;2023-08-06T20:31:20;0.80;;;0.60;;
76689;SDS011;70102;44.506;0.220;2023-08-06T20:36:53;0.67;;;0.67;;
76689;SDS011;70102;44.506;0.220;2023-08-06T20:42:26;2.33;;;0.80;;
76689;SDS011;70102;44.506;0.220;2023-08-06T20:48:00;4.50;;;0.80;;
76689;SDS011;70102;44.506;0.220;2023-08-06T20:53:33;4.23;;;0.67;;
76689;SDS011;70102;44.506;0.220;2023-08-06T20:59:06;0.87;;;0.80;;
76689;SDS011;70102;44.506;0.220;2023-08-06T21:04:41;1.97;;;0.83;;
76689;SDS011;70102;44.506;0.220;2023-08-06T21:10:13;1.53;;;0.63;;
76689;SDS011;70102;44.506;0.220;2023-08-06T21:15:46;1.20;;;0.60;;
76689;SDS011;70102;44.506;0.220;2023-08-06T21:21:17;6.83;;;0.87;;
76689;SDS011;70102;44.506;0.220;2023-08-06T21:26:50;2.00;;;1.23;;
76689;SDS011;70102;44.506;0.220;2023-08-06T21:32:23;2.17;;;0.77;;
76689;SDS011;70102;44.506;0.220;2023-08-06T21:37:57;4.70;;;1.23;;
76689;SDS011;70102;44.506;0.220;2023-08-06T21:43:30;1.97;;;0.73;;
76689;SDS011;70102;44.506;0.220;2023-08-06T21:49:02;6.37;;;1.80;;
76689;SDS011;70102;44.506;0.220;2023-08-06T21:54:36;1.97;;;0.67;;
76689;SDS011;70102;44.506;0.220;2023-08-06T22:00:10;1.40;;;0.70;;
76689;SDS011;70102;44.506;0.220;2023-08-06T22:05:43;1.00;;;0.60;;
76689;SDS011;70102;44.506;0.220;2023-08-06T22:11:17;5.93;;;1.63;;
76689;SDS011;70102;44.506;0.220;2023-08-06T22:16:50;2.10;;;0.90;;
76689;SDS011;70102;44.506;0.220;2023-08-06T22:22:22;3.43;;;0.77;;
76689;SDS011;70102;44.506;0.220;2023-08-06T22:27:56;6.43;;;0.67;;
76689;SDS011;70102;44.506;0.220;2023-08-06T22:33:29;5.50;;;0.90;;
76689;SDS011;70102;44.506;0.220;2023-08-06T22:39:02;2.27;;;0.80;;
76689;SDS011;70102;44.506;0.220;2023-08-06T22:44:34;2.33;;;0.63;;
76689;SDS011;70102;44.506;0.220;2023-08-06T22:50:07;4.57;;;1.10;;
76689;SDS011;70102;44.506;0.220;2023-08-06T22:55:40;3.27;;;0.90;;
76689;SDS011;70102;44.506;0.220;2023-08-06T23:01:12;3.40;;;0.97;;
76689;SDS011;70102;44.506;0.220;2023-08-06T23:06:45;8.43;;;0.97;;
76689;SDS011;70102;44.506;0.220;2023-08-06T23:12:17;2.57;;;0.60;;
76689;SDS011;70102;44.506;0.220;2023-08-06T23:17:50;2.60;;;1.80;;
76689;SDS011;70102;44.506;0.220;2023-08-06T23:23:24;4.47;;;0.87;;
76689;SDS011;70102;44.506;0.220;2023-08-06T23:28:57;3.07;;;0.90;;
76689;SDS011;70102;44.506;0.220;2023-08-06T23:34:31;2.13;;;1.10;;
76689;SDS011;70102;44.506;0.220;2023-08-06T23:40:04;1.37;;;0.77;;
76689;SDS011;70102;44.506;0.220;2023-08-06T23:45:37;4.83;;;1.03;;
76689;SDS011;70102;44.506;0.220;2023-08-06T23:51:10;0.93;;;0.70;;
76689;SDS011;70102;44.506;0.220;2023-08-06T23:56:43;4.40;;;0.83;;
